createdAt,value
2023-05-06T00:01:20.779Z,13.97
2023-05-06T00:03:25.019Z,13.99
2023-05-06T00:05:27.880Z,13.87
2023-05-06T00:07:30.557Z,13.87
2023-05-06T00:09:33.370Z,13.92
2023-05-06T00:11:36.100Z,13.85
2023-05-06T00:13:38.743Z,13.82
2023-05-06T00:15:41.557Z,13.76
2023-05-06T00:17:44.648Z,13.86
2023-05-06T00:19:49.560Z,13.87
2023-05-06T00:21:52.663Z,13.87
2023-05-06T00:23:55.794Z,13.81
2023-05-06T00:25:58.600Z,13.77
2023-05-06T00:28:01.336Z,13.80
2023-05-06T00:30:04.354Z,13.77
2023-05-06T00:32:07.182Z,13.81
2023-05-06T00:34:10.845Z,13.73
2023-05-06T00:36:14.929Z,13.67
2023-05-06T00:38:17.840Z,13.73
2023-05-06T00:40:20.475Z,13.78
2023-05-06T00:42:23.512Z,13.73
2023-05-06T00:44:26.310Z,13.60
2023-05-06T00:46:29.305Z,13.44
2023-05-06T00:48:32.091Z,13.44
2023-05-06T00:50:36.033Z,13.40
2023-05-06T00:52:40.104Z,13.46
2023-05-06T00:54:42.965Z,13.38
2023-05-06T00:56:45.761Z,13.33
2023-05-06T00:58:49.496Z,13.31
2023-05-06T01:00:52.497Z,13.31
2023-05-06T01:02:55.294Z,13.30
2023-05-06T01:04:58.542Z,13.32
2023-05-06T01:07:08.887Z,13.24
2023-05-06T01:09:20.837Z,13.30
2023-05-06T01:11:30.858Z,13.26
2023-05-06T01:13:43.727Z,13.32
2023-05-06T01:15:48.055Z,13.24
2023-05-06T01:17:54.469Z,13.22
2023-05-06T01:20:01.703Z,13.15
2023-05-06T01:22:06.781Z,13.25
2023-05-06T01:24:10.841Z,13.30
2023-05-06T01:26:13.486Z,13.35
2023-05-06T01:28:16.113Z,13.29
2023-05-06T01:30:20.648Z,13.23
2023-05-06T01:32:43.957Z,13.26
2023-05-06T01:34:54.869Z,13.22
2023-05-06T01:37:09.085Z,13.14
2023-05-06T01:39:18.065Z,13.16
2023-05-06T01:41:21.964Z,13.18
2023-05-06T01:43:29.235Z,13.13
2023-05-06T01:45:34.834Z,13.24
2023-05-06T01:47:38.552Z,13.20
2023-05-06T01:49:41.491Z,13.22
2023-05-06T01:51:48.795Z,13.21
2023-05-06T01:53:51.530Z,13.14
2023-05-06T01:55:55.632Z,13.13
2023-05-06T01:57:58.292Z,13.15
2023-05-06T02:00:00.995Z,13.21
2023-05-06T02:02:03.833Z,13.22
2023-05-06T02:04:07.348Z,13.16
2023-05-06T02:06:09.258Z,13.21
2023-05-06T02:08:11.929Z,13.17
2023-05-06T02:10:14.615Z,13.18
2023-05-06T02:12:18.727Z,13.18
2023-05-06T02:14:21.399Z,13.18
2023-05-06T02:16:24.208Z,13.15
2023-05-06T02:18:26.934Z,13.13
2023-05-06T02:20:29.742Z,13.12
2023-05-06T02:22:32.513Z,13.18
2023-05-06T02:24:35.240Z,13.09
2023-05-06T02:26:38.008Z,13.22
2023-05-06T02:28:42.325Z,13.21
2023-05-06T02:30:45.494Z,13.13
2023-05-06T02:32:48.280Z,13.12
2023-05-06T02:34:51.672Z,13.18
2023-05-06T02:36:54.434Z,13.35
2023-05-06T02:38:57.159Z,13.19
2023-05-06T02:40:59.948Z,13.18
2023-05-06T02:43:02.828Z,13.12
2023-05-06T02:45:08.746Z,13.15
2023-05-06T02:47:11.661Z,13.13
2023-05-06T02:49:14.316Z,13.15
2023-05-06T02:51:17.191Z,12.99
2023-05-06T02:53:19.887Z,12.98
2023-05-06T02:55:22.618Z,12.99
2023-05-06T02:57:25.640Z,12.86
2023-05-06T02:59:28.270Z,12.77
2023-05-06T03:01:32.370Z,12.79
2023-05-06T03:03:35.136Z,12.71
2023-05-06T03:05:37.842Z,12.66
2023-05-06T03:07:40.777Z,12.78
2023-05-06T03:09:43.500Z,12.73
2023-05-06T03:11:46.260Z,12.70
2023-05-06T03:13:49.042Z,12.74
2023-05-06T03:15:53.783Z,12.77
2023-05-06T03:17:57.974Z,12.82
2023-05-06T03:20:00.916Z,12.84
2023-05-06T03:22:03.653Z,12.81
2023-05-06T03:24:07.199Z,12.77
2023-05-06T03:26:10.053Z,12.72
2023-05-06T03:28:13.040Z,12.57
2023-05-06T03:30:15.955Z,12.55
2023-05-06T03:32:19.177Z,12.55
2023-05-06T03:34:23.195Z,12.59
2023-05-06T03:36:27.931Z,12.55
2023-05-06T03:38:30.742Z,12.37
2023-05-06T03:40:33.746Z,12.42
2023-05-06T03:42:36.515Z,12.44
2023-05-06T03:44:39.219Z,12.37
2023-05-06T03:46:42.206Z,12.31
2023-05-06T03:48:44.957Z,12.29
2023-05-06T03:50:49.128Z,12.40
2023-05-06T03:52:52.351Z,12.30
2023-05-06T03:54:55.061Z,12.32
2023-05-06T03:56:57.848Z,12.25
2023-05-06T03:59:00.893Z,12.19
2023-05-06T04:01:04.305Z,12.19
2023-05-06T04:03:07.120Z,12.32
2023-05-06T04:05:10.308Z,12.34
2023-05-06T04:07:14.562Z,12.33
2023-05-06T04:09:17.319Z,12.35
2023-05-06T04:11:20.028Z,12.23
2023-05-06T04:13:22.886Z,12.33
2023-05-06T04:15:25.721Z,12.22
2023-05-06T04:17:28.432Z,12.12
2023-05-06T04:19:32.098Z,12.30
2023-05-06T04:21:34.796Z,12.26
2023-05-06T04:23:39.070Z,12.38
2023-05-06T04:25:42.608Z,12.33
2023-05-06T04:27:45.400Z,12.32
2023-05-06T04:29:48.271Z,12.31
2023-05-06T04:31:51.536Z,12.31
2023-05-06T04:33:54.792Z,12.38
2023-05-06T04:35:57.540Z,12.51
2023-05-06T04:38:00.309Z,12.52
2023-05-06T04:40:06.273Z,12.63
2023-05-06T04:42:09.127Z,12.49
2023-05-06T04:44:11.817Z,12.47
2023-05-06T04:46:14.567Z,12.47
2023-05-06T04:48:18.859Z,12.50
2023-05-06T04:50:24.361Z,12.74
2023-05-06T04:52:33.054Z,12.84
2023-05-06T04:54:35.746Z,13.11
2023-05-06T04:56:39.780Z,12.92
2023-05-06T04:58:42.680Z,12.93
2023-05-06T05:00:45.393Z,13.04
2023-05-06T05:02:48.332Z,13.26
2023-05-06T05:04:51.156Z,13.12
2023-05-06T05:06:53.803Z,13.33
2023-05-06T05:08:57.093Z,13.35
2023-05-06T05:10:59.781Z,13.18
2023-05-06T05:13:03.976Z,13.22
2023-05-06T05:15:07.915Z,13.18
2023-05-06T05:17:10.947Z,13.20
2023-05-06T05:19:13.707Z,13.35
2023-05-06T05:21:16.875Z,13.11
2023-05-06T05:23:19.613Z,13.05
2023-05-06T05:25:22.300Z,13.22
2023-05-06T05:27:25.026Z,13.08
2023-05-06T05:29:29.058Z,13.24
2023-05-06T05:31:32.081Z,13.35
2023-05-06T05:33:34.817Z,13.37
2023-05-06T05:35:37.589Z,13.17
2023-05-06T05:37:40.337Z,13.47
2023-05-06T05:39:42.977Z,13.70
2023-05-06T05:41:45.743Z,13.65
2023-05-06T05:43:48.498Z,13.88
2023-05-06T05:45:52.564Z,13.86
2023-05-06T05:47:55.402Z,13.78
2023-05-06T05:49:58.070Z,13.55
2023-05-06T05:52:00.795Z,13.41
2023-05-06T05:54:03.493Z,13.61
2023-05-06T05:56:07.003Z,13.56
2023-05-06T05:58:11.585Z,13.90
2023-05-06T06:00:15.105Z,14.23
2023-05-06T06:02:19.144Z,14.23
2023-05-06T06:04:22.083Z,14.06
2023-05-06T06:06:25.285Z,14.21
2023-05-06T06:08:29.688Z,14.68
2023-05-06T06:10:32.372Z,14.77
2023-05-06T06:12:35.101Z,15.12
2023-05-06T06:14:37.844Z,14.91
2023-05-06T06:16:40.593Z,14.96
2023-05-06T06:18:44.742Z,15.15
2023-05-06T06:20:47.433Z,16.11
2023-05-06T06:22:50.171Z,15.88
2023-05-06T06:24:53.725Z,15.91
2023-05-06T06:26:56.474Z,15.54
2023-05-06T06:28:59.147Z,15.81
2023-05-06T06:31:02.077Z,15.86
2023-05-06T06:33:05.025Z,15.45
2023-05-06T06:35:09.567Z,15.91
2023-05-06T06:37:13.119Z,15.15
2023-05-06T06:39:15.858Z,15.01
2023-05-06T06:41:18.627Z,15.30
2023-05-06T06:43:21.431Z,15.01
2023-05-06T06:45:24.150Z,14.81
2023-05-06T06:47:26.944Z,14.46
2023-05-06T06:49:29.905Z,14.52
2023-05-06T06:51:33.926Z,14.76
2023-05-06T06:53:36.782Z,14.75
2023-05-06T06:55:39.593Z,14.76
2023-05-06T06:57:42.276Z,14.85
2023-05-06T06:59:45.190Z,14.93
2023-05-06T07:01:47.934Z,15.37
2023-05-06T07:03:50.695Z,15.30
2023-05-06T07:05:53.363Z,15.11
2023-05-06T07:07:57.402Z,14.93
2023-05-06T07:10:00.287Z,15.06
2023-05-06T07:12:03.075Z,15.79
2023-05-06T07:14:05.771Z,15.94
2023-05-06T07:16:08.568Z,15.54
2023-05-06T07:18:11.298Z,15.59
2023-05-06T07:20:14.317Z,15.59
2023-05-06T07:22:17.103Z,15.34
2023-05-06T07:24:21.188Z,15.32
2023-05-06T07:26:23.924Z,15.40
2023-05-06T07:28:26.794Z,15.58
2023-05-06T07:30:29.533Z,15.89
2023-05-06T07:32:32.343Z,16.47
2023-05-06T07:34:36.082Z,15.73
2023-05-06T07:36:40.848Z,16.11
2023-05-06T07:38:43.648Z,16.47
2023-05-06T07:40:47.738Z,16.51
2023-05-06T07:42:50.410Z,17.37
2023-05-06T07:44:53.127Z,17.93
2023-05-06T07:46:55.969Z,18.47
2023-05-06T07:48:58.757Z,18.93
2023-05-06T07:51:01.917Z,19.20
2023-05-06T07:53:04.985Z,16.72
2023-05-06T07:55:10.087Z,16.37
2023-05-06T07:57:14.681Z,15.77
2023-05-06T07:59:17.415Z,15.59
2023-05-06T08:01:20.101Z,16.08
2023-05-06T08:03:22.954Z,15.60
2023-05-06T08:05:25.759Z,16.58
2023-05-06T08:07:28.658Z,15.81
2023-05-06T08:09:31.356Z,16.05
2023-05-06T08:11:34.116Z,16.08
2023-05-06T08:13:38.230Z,16.60
2023-05-06T08:15:41.322Z,17.39
2023-05-06T08:17:44.111Z,16.81
2023-05-06T08:19:46.941Z,17.00
2023-05-06T08:21:50.485Z,16.97
2023-05-06T08:23:53.678Z,17.28
2023-05-06T08:25:56.346Z,18.04
2023-05-06T08:27:59.151Z,18.35
2023-05-06T08:30:03.279Z,17.26
2023-05-06T08:32:06.553Z,17.25
2023-05-06T08:34:09.442Z,17.70
2023-05-06T08:36:12.151Z,17.44
2023-05-06T08:38:14.859Z,17.66
2023-05-06T08:40:20.538Z,17.45
2023-05-06T08:42:26.079Z,17.94
2023-05-06T08:44:28.925Z,17.61
2023-05-06T08:46:33.092Z,17.35
2023-05-06T08:48:37.372Z,18.40
2023-05-06T08:50:43.214Z,18.38
2023-05-06T08:52:46.279Z,18.35
2023-05-06T08:54:53.531Z,18.69
2023-05-06T08:56:58.548Z,18.95
2023-05-06T08:59:01.676Z,19.12
2023-05-06T09:01:05.428Z,19.83
2023-05-06T09:03:09.562Z,20.26
2023-05-06T09:05:12.805Z,18.20
2023-05-06T09:07:16.313Z,17.21
2023-05-06T09:09:19.154Z,17.59
2023-05-06T09:11:26.486Z,17.82
2023-05-06T09:13:29.230Z,18.34
2023-05-06T09:15:40.724Z,18.63
2023-05-06T09:17:43.525Z,18.41
2023-05-06T09:19:47.757Z,18.29
2023-05-06T09:21:51.932Z,18.75
2023-05-06T09:23:54.697Z,20.02
2023-05-06T09:25:58.130Z,20.79
2023-05-06T09:28:08.966Z,20.75
2023-05-06T09:30:13.439Z,21.85
2023-05-06T09:32:16.857Z,22.87
2023-05-06T09:34:21.135Z,23.20
2023-05-06T09:36:27.516Z,22.94
2023-05-06T09:38:30.248Z,22.24
2023-05-06T09:40:33.406Z,22.63
2023-05-06T09:42:36.213Z,21.16
2023-05-06T09:44:38.988Z,21.11
2023-05-06T09:46:42.222Z,20.16
2023-05-06T09:48:45.983Z,19.71
2023-05-06T09:50:49.956Z,21.17
2023-05-06T09:52:56.116Z,22.53
2023-05-06T09:54:59.355Z,23.08
2023-05-06T09:57:03.710Z,22.75
2023-05-06T09:59:07.714Z,23.46
2023-05-06T10:01:15.189Z,22.85
2023-05-06T10:03:23.301Z,23.54
2023-05-06T10:05:27.026Z,21.74
2023-05-06T10:07:30.683Z,22.88
2023-05-06T10:09:35.866Z,24.27
2023-05-06T10:11:38.567Z,23.48
2023-05-06T10:13:42.312Z,22.85
2023-05-06T10:15:47.226Z,21.72
2023-05-06T10:17:52.840Z,21.18
2023-05-06T10:19:59.842Z,21.80
2023-05-06T10:22:09.834Z,22.11
2023-05-06T10:24:14.087Z,23.37
2023-05-06T10:26:20.897Z,20.67
2023-05-06T10:28:30.496Z,22.12
2023-05-06T10:30:35.288Z,23.53
2023-05-06T10:32:42.351Z,21.04
2023-05-06T10:34:54.129Z,19.68
2023-05-06T10:37:00.150Z,20.97
2023-05-06T10:39:04.634Z,20.24
2023-05-06T10:41:09.142Z,19.46
2023-05-06T10:43:27.254Z,21.16
2023-05-06T10:45:30.034Z,21.20
2023-05-06T10:48:07.334Z,19.29
2023-05-06T10:50:23.779Z,20.52
2023-05-06T10:52:26.707Z,20.32
2023-05-06T10:54:29.428Z,20.89
2023-05-06T10:56:33.531Z,19.86
2023-05-06T10:58:38.516Z,21.37
2023-05-06T11:00:41.431Z,20.23
2023-05-06T11:02:47.404Z,20.19
2023-05-06T11:05:00.551Z,21.66
2023-05-06T11:07:10.776Z,20.95
2023-05-06T11:09:18.375Z,20.49
2023-05-06T11:11:50.904Z,19.90
2023-05-06T11:13:55.430Z,20.84
2023-05-06T11:16:00.212Z,20.99
2023-05-06T11:18:45.978Z,21.09
2023-05-06T11:20:48.685Z,21.17
2023-05-06T11:22:51.633Z,20.88
2023-05-06T11:24:54.357Z,21.25
2023-05-06T11:26:58.843Z,21.29
2023-05-06T11:29:04.036Z,21.42
2023-05-06T11:31:07.878Z,21.10
2023-05-06T11:33:18.486Z,21.55
2023-05-06T11:35:22.991Z,20.96
2023-05-06T11:37:27.057Z,21.31
2023-05-06T11:39:32.323Z,21.89
2023-05-06T11:41:40.860Z,22.38
2023-05-06T11:43:47.081Z,20.39
2023-05-06T11:45:50.678Z,20.90
2023-05-06T11:47:55.544Z,20.15
2023-05-06T11:49:59.012Z,19.47
2023-05-06T11:52:04.838Z,19.00
2023-05-06T11:54:09.485Z,19.35
2023-05-06T11:56:13.092Z,19.65
2023-05-06T11:58:16.458Z,19.54
2023-05-06T12:00:21.194Z,19.52
2023-05-06T12:02:24.083Z,19.40
2023-05-06T12:04:26.923Z,19.83
2023-05-06T12:06:35.130Z,19.74
2023-05-06T12:08:39.933Z,19.96
2023-05-06T12:10:43.126Z,19.89
2023-05-06T12:12:45.961Z,19.61
2023-05-06T12:14:50.412Z,19.76
2023-05-06T12:16:55.991Z,19.30
2023-05-06T12:18:59.163Z,19.08
2023-05-06T12:21:03.777Z,19.38
2023-05-06T12:23:07.283Z,19.18
2023-05-06T12:25:18.374Z,19.34
2023-05-06T12:27:34.657Z,19.58
2023-05-06T12:29:37.452Z,19.22
2023-05-06T12:31:40.524Z,20.19
2023-05-06T12:33:48.802Z,20.66
2023-05-06T12:35:54.697Z,20.96
2023-05-06T12:37:57.913Z,20.92
2023-05-06T12:40:01.251Z,20.79
2023-05-06T12:42:06.157Z,20.81
2023-05-06T12:44:34.481Z,21.35
2023-05-06T12:46:37.263Z,21.40
2023-05-06T12:48:40.596Z,21.14
2023-05-06T12:50:45.836Z,21.45
2023-05-06T12:52:48.721Z,20.55
2023-05-06T12:54:52.656Z,20.72
2023-05-06T12:56:55.596Z,21.09
2023-05-06T12:59:01.664Z,21.53
2023-05-06T13:01:04.979Z,21.18
2023-05-06T13:03:07.900Z,20.85
2023-05-06T13:05:10.927Z,20.46
2023-05-06T13:07:13.755Z,21.15
2023-05-06T13:09:16.898Z,21.70
2023-05-06T13:11:21.506Z,20.95
2023-05-06T13:13:24.436Z,20.85
2023-05-06T13:15:28.758Z,20.96
2023-05-06T13:17:31.678Z,20.51
2023-05-06T13:19:34.617Z,20.41
2023-05-06T13:21:37.619Z,20.30
2023-05-06T13:23:46.728Z,19.77
2023-05-06T13:26:03.655Z,20.29
2023-05-06T13:28:07.773Z,20.18
2023-05-06T13:30:11.157Z,20.14
2023-05-06T13:32:15.469Z,19.90
2023-05-06T13:34:18.221Z,20.11
2023-05-06T13:36:21.031Z,20.18
2023-05-06T13:38:24.003Z,20.25
2023-05-06T13:40:26.842Z,20.12
2023-05-06T13:42:29.741Z,20.22
2023-05-06T13:44:33.092Z,20.03
2023-05-06T13:46:36.011Z,20.69
2023-05-06T13:48:40.174Z,21.12
2023-05-06T13:50:43.328Z,20.85
2023-05-06T13:52:46.050Z,20.95
2023-05-06T13:54:48.908Z,20.89
2023-05-06T13:56:51.734Z,20.84
2023-05-06T13:58:54.681Z,20.46
2023-05-06T14:00:57.633Z,20.39
2023-05-06T14:03:00.758Z,20.27
2023-05-06T14:05:05.946Z,20.41
2023-05-06T14:07:08.828Z,20.78
2023-05-06T14:09:12.208Z,20.56
2023-05-06T14:11:15.056Z,20.42
2023-05-06T14:13:18.184Z,20.38
2023-05-06T14:15:21.240Z,20.65
2023-05-06T14:17:24.166Z,20.62
2023-05-06T14:19:27.191Z,20.04
2023-05-06T14:21:31.973Z,20.38
2023-05-06T14:23:34.916Z,20.00
2023-05-06T14:25:38.029Z,20.52
2023-05-06T14:27:40.829Z,20.93
2023-05-06T14:29:46.034Z,20.17
2023-05-06T14:31:48.848Z,20.81
2023-05-06T14:33:51.611Z,20.64
2023-05-06T14:35:54.390Z,20.39
2023-05-06T14:37:58.654Z,20.80
2023-05-06T14:40:01.496Z,20.78
2023-05-06T14:42:04.419Z,21.04
2023-05-06T14:44:07.196Z,21.24
2023-05-06T14:46:11.270Z,21.16
2023-05-06T14:48:14.158Z,20.93
2023-05-06T14:50:16.985Z,20.76
2023-05-06T14:52:20.162Z,20.80
2023-05-06T14:54:26.733Z,20.87
2023-05-06T14:56:29.591Z,20.69
2023-05-06T14:58:32.388Z,20.62
2023-05-06T15:00:35.297Z,20.29
2023-05-06T15:02:40.566Z,20.41
2023-05-06T15:04:43.475Z,20.62
2023-05-06T15:06:46.219Z,20.53
2023-05-06T15:08:49.227Z,20.40
2023-05-06T15:10:53.442Z,20.56
2023-05-06T15:12:56.285Z,20.14
2023-05-06T15:14:59.053Z,20.70
2023-05-06T15:17:01.848Z,20.54
2023-05-06T15:19:04.729Z,20.43
2023-05-06T15:21:07.657Z,20.54
2023-05-06T15:23:10.643Z,20.50
2023-05-06T15:25:22.407Z,20.89
2023-05-06T15:27:30.794Z,20.43
2023-05-06T15:29:33.566Z,20.67
2023-05-06T15:31:39.101Z,20.62
2023-05-06T15:33:42.003Z,20.50
2023-05-06T15:35:44.945Z,20.84
2023-05-06T15:37:47.739Z,20.73
2023-05-06T15:39:50.654Z,20.61
2023-05-06T15:41:53.515Z,20.34
2023-05-06T15:43:59.087Z,20.60
2023-05-06T15:46:01.930Z,20.56
2023-05-06T15:48:04.928Z,20.56
2023-05-06T15:50:20.140Z,20.71
2023-05-06T15:52:31.552Z,20.62
2023-05-06T15:54:37.611Z,20.31
2023-05-06T15:56:41.561Z,20.67
2023-05-06T15:58:45.010Z,20.50
2023-05-06T16:00:49.227Z,20.43
2023-05-06T16:02:52.174Z,20.61
2023-05-06T16:04:55.368Z,20.66
2023-05-06T16:06:58.740Z,20.68
2023-05-06T16:09:01.491Z,20.50
2023-05-06T16:11:05.384Z,20.44
2023-05-06T16:13:08.424Z,20.47
2023-05-06T16:15:11.853Z,20.19
2023-05-06T16:17:16.750Z,20.13
2023-05-06T16:19:19.525Z,20.29
2023-05-06T16:21:22.331Z,20.19
2023-05-06T16:23:25.692Z,20.43
2023-05-06T16:25:28.410Z,20.33
2023-05-06T16:27:31.204Z,20.40
2023-05-06T16:29:34.028Z,20.29
2023-05-06T16:31:38.003Z,20.24
2023-05-06T16:33:42.358Z,20.41
2023-05-06T16:35:46.434Z,20.18
2023-05-06T16:37:49.237Z,20.41
2023-05-06T16:39:52.076Z,20.23
2023-05-06T16:41:55.236Z,20.23
2023-05-06T16:43:58.036Z,20.32
2023-05-06T16:46:02.313Z,20.46
2023-05-06T16:48:05.262Z,20.36
2023-05-06T16:50:10.168Z,20.20
2023-05-06T16:52:13.166Z,20.11
2023-05-06T16:54:16.026Z,20.19
2023-05-06T16:56:18.853Z,20.19
2023-05-06T16:58:21.935Z,20.04
2023-05-06T17:00:25.874Z,20.14
2023-05-06T17:02:28.877Z,19.89
2023-05-06T17:04:31.665Z,19.95
2023-05-06T17:06:35.942Z,19.79
2023-05-06T17:08:38.745Z,19.73
2023-05-06T17:10:45.972Z,19.80
2023-05-06T17:12:48.957Z,19.66
2023-05-06T17:14:51.768Z,19.75
2023-05-06T17:16:54.573Z,19.71
2023-05-06T17:18:57.504Z,19.67
2023-05-06T17:21:00.296Z,19.66
2023-05-06T17:23:04.504Z,19.65
2023-05-06T17:25:08.179Z,19.57
2023-05-06T17:27:10.973Z,19.63
2023-05-06T17:29:13.681Z,19.49
2023-05-06T17:31:16.491Z,19.45
2023-05-06T17:33:19.344Z,19.42
2023-05-06T17:35:22.269Z,19.32
2023-05-06T17:37:25.122Z,19.39
2023-05-06T17:39:29.263Z,19.34
2023-05-06T17:41:32.126Z,19.35
2023-05-06T17:43:35.108Z,19.15
2023-05-06T17:45:37.971Z,19.25
2023-05-06T17:47:40.901Z,19.30
2023-05-06T17:49:43.878Z,19.19
2023-05-06T17:51:46.712Z,19.04
2023-05-06T17:53:49.471Z,18.93
2023-05-06T17:55:53.613Z,18.97
2023-05-06T17:57:56.364Z,18.95
2023-05-06T17:59:59.177Z,19.03
2023-05-06T18:02:01.999Z,18.86
2023-05-06T18:04:04.927Z,18.91
2023-05-06T18:06:07.989Z,18.80
2023-05-06T18:08:10.726Z,18.91
2023-05-06T18:10:14.035Z,18.97
2023-05-06T18:12:18.305Z,18.79
2023-05-06T18:14:21.115Z,18.66
2023-05-06T18:16:24.005Z,18.55
2023-05-06T18:18:26.916Z,18.51
2023-05-06T18:20:29.665Z,18.52
2023-05-06T18:22:32.502Z,18.29
2023-05-06T18:24:35.909Z,18.36
2023-05-06T18:26:44.992Z,18.27
2023-05-06T18:28:50.043Z,18.12
2023-05-06T18:30:52.902Z,18.21
2023-05-06T18:32:56.752Z,18.03
2023-05-06T18:34:59.947Z,17.94
2023-05-06T18:37:02.725Z,17.95
2023-05-06T18:39:05.885Z,17.91
2023-05-06T18:41:09.093Z,17.94
2023-05-06T18:43:11.896Z,17.82
2023-05-06T18:45:16.359Z,17.77
2023-05-06T18:47:19.721Z,17.90
2023-05-06T18:49:23.198Z,17.58
2023-05-06T18:51:26.281Z,17.65
2023-05-06T18:53:29.088Z,17.56
2023-05-06T18:55:31.867Z,17.46
2023-05-06T18:57:34.665Z,17.31
2023-05-06T18:59:37.524Z,17.35
2023-05-06T19:01:41.661Z,17.28
2023-05-06T19:03:44.590Z,17.26
2023-05-06T19:05:47.457Z,17.24
2023-05-06T19:07:50.266Z,17.04
2023-05-06T19:09:53.088Z,16.93
2023-05-06T19:11:55.839Z,16.84
2023-05-06T19:13:58.630Z,16.86
2023-05-06T19:16:01.397Z,17.16
2023-05-06T19:18:05.900Z,17.28
2023-05-06T19:20:10.583Z,17.48
2023-05-06T19:22:13.782Z,17.18
2023-05-06T19:24:16.566Z,17.17
2023-05-06T19:26:19.386Z,17.23
2023-05-06T19:28:22.223Z,17.20
2023-05-06T19:30:25.102Z,17.01
2023-05-06T19:32:27.959Z,16.88
2023-05-06T19:34:32.261Z,16.76
2023-05-06T19:36:35.202Z,16.80
2023-05-06T19:38:38.050Z,16.79
2023-05-06T19:40:40.859Z,16.65
2023-05-06T19:42:43.647Z,16.78
2023-05-06T19:44:48.284Z,16.87
2023-05-06T19:46:54.377Z,17.02
2023-05-06T19:48:58.142Z,16.95
2023-05-06T19:51:02.256Z,16.79
2023-05-06T19:53:05.297Z,17.02
2023-05-06T19:55:09.333Z,16.91
2023-05-06T19:57:12.298Z,16.98
2023-05-06T19:59:15.058Z,17.20
2023-05-06T20:01:21.759Z,16.99
2023-05-06T20:03:25.355Z,17.07
2023-05-06T20:05:30.916Z,17.09
2023-05-06T20:07:35.115Z,17.11
2023-05-06T20:09:38.150Z,17.20
2023-05-06T20:11:41.129Z,16.95
2023-05-06T20:13:43.886Z,17.07
2023-05-06T20:15:47.530Z,16.83
2023-05-06T20:17:50.468Z,17.13
2023-05-06T20:19:54.378Z,16.91
2023-05-06T20:21:57.709Z,16.97
2023-05-06T20:24:01.957Z,16.87
2023-05-06T20:26:04.719Z,16.80
2023-05-06T20:28:07.645Z,16.99
2023-05-06T20:30:11.080Z,16.86
2023-05-06T20:32:13.933Z,16.75
2023-05-06T20:34:16.840Z,16.84
2023-05-06T20:36:19.622Z,16.86
2023-05-06T20:38:22.460Z,16.85
2023-05-06T20:40:26.755Z,16.86
2023-05-06T20:42:29.672Z,16.54
2023-05-06T20:44:32.583Z,16.76
2023-05-06T20:46:35.441Z,16.81
2023-05-06T20:48:38.170Z,16.71
2023-05-06T20:50:41.060Z,16.46
2023-05-06T20:52:45.605Z,16.72
2023-05-06T20:54:48.713Z,16.82
2023-05-06T20:56:52.966Z,16.63
2023-05-06T20:58:56.713Z,16.37
2023-05-06T21:00:59.759Z,16.42
2023-05-06T21:03:02.664Z,16.21
2023-05-06T21:05:06.314Z,16.40
2023-05-06T21:07:09.619Z,16.49
2023-05-06T21:09:12.447Z,16.16
2023-05-06T21:11:15.378Z,16.33
2023-05-06T21:13:19.573Z,16.24
2023-05-06T21:15:22.474Z,16.45
2023-05-06T21:17:25.441Z,16.40
2023-05-06T21:19:28.214Z,16.27
2023-05-06T21:21:32.591Z,16.40
2023-05-06T21:23:35.848Z,16.27
2023-05-06T21:25:38.669Z,16.27
2023-05-06T21:27:41.438Z,16.25
2023-05-06T21:29:45.756Z,16.21
2023-05-06T21:31:48.692Z,16.07
2023-05-06T21:33:54.722Z,16.15
2023-05-06T21:35:57.540Z,16.15
2023-05-06T21:38:00.336Z,16.16
2023-05-06T21:40:04.440Z,16.21
2023-05-06T21:42:07.333Z,16.16
2023-05-06T21:44:10.395Z,16.10
2023-05-06T21:46:14.574Z,16.13
2023-05-06T21:48:17.403Z,16.16
2023-05-06T21:50:20.312Z,16.19
2023-05-06T21:52:23.156Z,16.02
2023-05-06T21:54:26.353Z,15.97
2023-05-06T21:56:29.589Z,16.06
2023-05-06T21:58:32.320Z,15.92
2023-05-06T22:00:35.244Z,16.00
2023-05-06T22:02:40.009Z,15.94
2023-05-06T22:04:43.088Z,15.86
2023-05-06T22:06:45.854Z,15.87
2023-05-06T22:08:48.599Z,15.87
2023-05-06T22:10:51.470Z,15.67
2023-05-06T22:12:54.350Z,15.75
2023-05-06T22:14:57.538Z,15.70
2023-05-06T22:17:01.615Z,15.77
2023-05-06T22:19:06.789Z,15.76
2023-05-06T22:21:09.983Z,15.60
2023-05-06T22:23:12.799Z,15.46
2023-05-06T22:25:15.587Z,15.41
2023-05-06T22:27:18.321Z,15.40
2023-05-06T22:29:21.153Z,15.49
2023-05-06T22:31:24.688Z,15.25
2023-05-06T22:33:27.938Z,15.23
2023-05-06T22:35:32.106Z,15.21
2023-05-06T22:37:34.885Z,15.27
2023-05-06T22:39:37.742Z,15.35
2023-05-06T22:41:40.584Z,15.24
2023-05-06T22:43:43.356Z,15.11
2023-05-06T22:45:46.239Z,15.03
2023-05-06T22:47:49.029Z,14.95
2023-05-06T22:49:51.809Z,14.82
2023-05-06T22:51:56.099Z,14.87
2023-05-06T22:53:58.857Z,14.71
2023-05-06T22:56:01.760Z,14.80
2023-05-06T22:58:04.537Z,14.58
2023-05-06T23:00:08.828Z,14.44
2023-05-06T23:02:11.741Z,14.42
2023-05-06T23:04:14.572Z,14.43
2023-05-06T23:06:18.120Z,14.42
2023-05-06T23:08:22.272Z,14.43
2023-05-06T23:10:25.131Z,14.38
2023-05-06T23:12:28.743Z,14.42
2023-05-06T23:14:31.476Z,14.46
2023-05-06T23:16:34.327Z,14.45
2023-05-06T23:18:37.297Z,14.36
2023-05-06T23:20:40.090Z,14.34
2023-05-06T23:22:42.938Z,14.32
2023-05-06T23:24:47.105Z,14.39
2023-05-06T23:26:49.900Z,14.31
2023-05-06T23:28:52.664Z,14.40
2023-05-06T23:30:55.510Z,14.33
2023-05-06T23:32:58.452Z,14.44
2023-05-06T23:35:02.600Z,14.36
2023-05-06T23:37:05.388Z,14.33
2023-05-06T23:39:11.504Z,14.39
2023-05-06T23:41:15.669Z,14.35
2023-05-06T23:43:18.537Z,14.43
2023-05-06T23:45:21.426Z,14.39
2023-05-06T23:47:25.397Z,14.40
2023-05-06T23:49:28.308Z,14.48
2023-05-06T23:51:31.714Z,14.54
2023-05-06T23:53:36.042Z,14.57
2023-05-06T23:55:39.294Z,14.64
2023-05-06T23:57:43.468Z,14.58
2023-05-06T23:59:46.400Z,14.45
